Big Creek, Kentucky
Current Conditions -  °F | °C
As of 4:15 AM on Monday 22 Dec 2014 (Local Time) from KI35 Reporting Station
Overcast Overcast  
Wind Chill: 34°   Ceiling: 6000
Heat Index: 34°   Visibility: 10mi
Dew Point: 32°   Wind: 3mph
Humidity: 93%   Direction: 90°E
Pressure: 30.03"   Gusts: NA
Location:  37.16°N, 83.57°W
Report Text: KI35 220915Z AUTO 09003KT 10SM SCT038 SCT046 OVC060 01/00 A3003 RMK AO1
Loading
Personal Weather Stations






























Interactive Weather Map New forecast layout! Learn more

10-Day Weather Forecast

Advertisements
Track Severe Weather on mobile